Thursday, October 23, 2014
09:28 UTC
  |  Log In   |  Register Free
Airport Search:

Corpus Christi International Airport
(KCRP)

FAA data valid effective September 18, 2014 - November 13, 2014 (unless otherwise noted).

 
 
 
 
 
 
 
 
 
 
 
 
 
 

Current Aviation Weather for Corpus Christi International Airport (KCRP)

The most recent METAR observation for KCRP was updated at: 0909
METAR Summary (Translated METAR)
KCRP
230851Z 35005KT 10SM FEW021 FEW200 21/18 A3004 RMK AO2 SLP171 T02060178 56003
KRBO
222350Z AUTO 10007KT 7SM +RA CLR 26/19 A3003 RMK AO2 T02560187 10293 20256
(10.1 nm NW from KCRP)
KNGP
230856Z AUTO 06006KT 10SM CLR 23/19 A3003 RMK AO2 SLP167 T02280189 56004
(12.1 nm SE from KCRP)
TAF Summary (Translated TAF)
KCRP
230539Z 2306/2406 04007KT P6SM SCT025 BKN200 FM231800 07014KT P6SM SCT040 BKN250 FM240400 VRB03KT P6SM SCT250
KNGP
(12.1 nm SE from KCRP)
2307/2407 10010KT 9999 SCT025 QNH3000INS FM231700 07011KT 9999 SCT035 FEW120 QNH3000INS AUTOMATED SENSOR METWATCH 2307 TIL 2311 T20/2312Z T28/2321Z FN00088
  Airport Weather Conditions for KCRP

 Current Weather at CRP
69° F
A Few Clouds
North winds at 5.8 mph
CRP NOAA Radar

Pressure: 30.04 in
Humidity: 84%
Wind: North at 5.8 MPH (5 KT)
Dew Point: 64.0°F
Visibility: 10.00 mi


Airport Weather Forecast for KCRP

Translated METAR and TAF for KCRP
Translated METAR for KCRP (0923 UTC 23 October 2014)
found at http://aviationweather.gov/adds/metars/
 
METAR text: KCRP 230851Z 35005KT 10SM FEW021 FEW200 21/18 A3004 RMK AO2 SLP171 T02060178 56003
Conditions at: KCRP (CORPUS CHRISTI , TX, US) observed 0851 UTC 23 October 2014
Temperature: 20.6°C (69°F)
Dewpoint: 17.8°C (64°F) [RH = 84%]
Pressure (altimeter): 30.04 inches Hg (1017.4 mb)
[Sea-level pressure: 1017.1 mb]
Winds: from the N (350 degrees) at 6 MPH (5 knots; 2.6 m/s)
Visibility: 10 or more miles (16+ km)
Ceiling: at least 12,000 feet AGL
Clouds: few clouds at 2100 feet AGL
few clouds at 20000 feet AGL
Weather: no significant weather observed at this time
Translated TAF for KCRP
Forecast for: KCRP (CORPUS CHRISTI , TX, US)
TAF Text: KCRP 230539Z 2306/2406 04007KT P6SM SCT025 BKN200
Forecast period: 0600 to 1800 UTC 23 October 2014
Forecast type: FROM: standard forecast or significant change
Winds: from the NE (40 degrees) at 8 MPH (7 knots; 3.6 m/s)
Visibility: 6 or more miles (10+ km)
Ceiling: 20000 feet AGL
Clouds: scattered clouds at 2500 feet AGL
broken clouds at 20000 feet AGL
Weather: no significant weather forecast for this period
TAF Text: FM231800 07014KT P6SM SCT040 BKN250
Forecast period: 1800 UTC 23 October 2014 to 0400 UTC 24 October 2014
Forecast type: FROM: standard forecast or significant change
Winds: from the ENE (70 degrees) at 16 MPH (14 knots; 7.3 m/s)
Visibility: 6 or more miles (10+ km)
Ceiling: 25000 feet AGL
Clouds: scattered clouds at 4000 feet AGL
broken clouds at 25000 feet AGL
Weather: no significant weather forecast for this period
TAF Text: FM240400 VRB03KT P6SM SCT250
Forecast period: 0400 to 0600 UTC 24 October 2014
Forecast type: FROM: standard forecast or significant change
Winds: variable direction winds at 3 MPH (3 knots; 1.6 m/s)
Visibility: 6 or more miles (10+ km)
Clouds: scattered clouds at 25000 feet AGL
Weather: no significant weather forecast for this period

Find All Airport Services Find A Hotel Find A Rental Car Find A Golf Course Find A Restaurant $100 Hamburger



FBO's on the Field
FBO Company Facility Photos Services Transportation Aviation Fuel Prices: Prices include tax
Catering Weather Repair Courtesy Rental Type 100LL JetA JetA+ MOGAS 8087
 
Atlantic Aviation

This FBO has not yet been rated
FS:Chevron
Last Updated: Oct-22
Login to update fuel prices
SS:
Contact Atlantic AviationMore FBO Information
 
Signature Flight Support

This FBO has not yet been rated
FS:Avfuel
Last Updated: Oct-22
Login to update fuel prices
SS:
Contact Signature Flight SupportMore FBO Information
 
Add another FBO Facility Photos Catering Weather Repair Courtesy Rental Type 100LL JetA JetA+ MOGAS 8087
Services Transportation Aviation Fuel Prices: Prices include tax


model-print
model-print
model-print
model-print